Time;durP1;ratioP1;P1;durP2;ratioP2;P2;SDS_P1;SDS_P2;PMS_P1;PMS_P2;Temp;Humidity;BMP_temperature;BMP_pressure;BME280_temperature;BME280_humidity;BME280_pressure;Samples;Min_cycle;Max_cycle;Signal;HPM_P1;HPM_P2
2022/12/01 00:02:20;;;;;;;52.93;28.20;;;5.00;99.90;;;;;;5035355;28;20226;-81
2022/12/01 00:04:49;;;;;;;51.07;26.97;;;5.00;99.90;;;;;;5031865;28;20200;-81
2022/12/01 00:07:16;;;;;;;55.10;29.37;;;5.00;99.90;;;;;;5034314;28;20204;-81
2022/12/01 00:12:35;;;;;;;55.80;28.97;;;5.00;99.90;;;;;;5012607;28;20200;-81
2022/12/01 00:15:01;;;;;;;57.40;28.10;;;5.00;99.90;;;;;;5014462;28;20220;-81
2022/12/01 00:17:29;;;;;;;54.27;28.87;;;5.00;99.90;;;;;;5028557;28;20204;-81
2022/12/01 00:19:57;;;;;;;58.17;29.70;;;5.00;99.90;;;;;;5017498;28;20232;-81
2022/12/01 00:22:24;;;;;;;54.83;28.03;;;5.00;99.90;;;;;;5035306;28;20658;-81
2022/12/01 00:24:51;;;;;;;54.00;28.47;;;5.00;99.90;;;;;;5034658;28;20200;-81
2022/12/01 00:27:18;;;;;;;51.80;27.47;;;5.00;99.90;;;;;;5031142;28;20633;-81
2022/12/01 00:29:46;;;;;;;57.43;29.17;;;5.00;99.90;;;;;;5027031;28;20219;-81
2022/12/01 00:32:13;;;;;;;55.27;29.77;;;5.00;99.90;;;;;;5018780;28;20627;-81
2022/12/01 00:34:39;;;;;;;56.03;29.43;;;4.90;99.90;;;;;;5023710;28;20254;-81
2022/12/01 00:37:08;;;;;;;54.50;27.90;;;5.00;99.90;;;;;;5024323;28;20204;-80
2022/12/01 00:39:34;;;;;;;56.00;28.07;;;5.00;99.90;;;;;;5029024;28;20606;-81
2022/12/01 00:42:01;;;;;;;55.80;28.83;;;4.90;99.90;;;;;;5031140;28;20700;-81
2022/12/01 00:44:28;;;;;;;57.33;28.80;;;5.00;99.90;;;;;;5026637;28;20294;-81
2022/12/01 00:46:55;;;;;;;63.83;29.60;;;4.90;99.90;;;;;;5033825;28;20620;-81
2022/12/01 00:49:21;;;;;;;65.83;30.03;;;4.90;99.90;;;;;;5034041;28;20231;-81
2022/12/01 00:51:48;;;;;;;53.60;29.43;;;4.90;99.90;;;;;;5034189;28;20371;-81
2022/12/01 00:54:16;;;;;;;55.97;30.73;;;4.90;99.90;;;;;;5032349;28;20218;-81
2022/12/01 00:56:43;;;;;;;56.87;28.03;;;4.90;99.90;;;;;;5034657;28;20234;-81
2022/12/01 00:59:10;;;;;;;62.83;30.43;;;4.90;99.90;;;;;;5034584;28;20228;-81
2022/12/01 01:01:37;;;;;;;57.63;29.10;;;4.80;99.90;;;;;;5033656;28;20213;-81
2022/12/01 01:04:04;;;;;;;62.07;30.83;;;4.80;99.90;;;;;;5034535;28;20204;-81
2022/12/01 01:06:31;;;;;;;64.87;31.13;;;4.90;99.90;;;;;;5027820;28;20195;-81
2022/12/01 01:08:58;;;;;;;63.77;29.27;;;4.90;99.90;;;;;;5034749;28;20847;-81
2022/12/01 01:11:26;;;;;;;57.87;30.73;;;4.90;99.90;;;;;;5030294;28;20199;-81
2022/12/01 01:13:53;;;;;;;69.60;32.43;;;4.90;99.90;;;;;;5024205;28;20201;-81
2022/12/01 01:16:21;;;;;;;68.33;32.57;;;4.80;99.90;;;;;;5034626;28;20216;-81
2022/12/01 01:18:48;;;;;;;78.07;35.93;;;4.80;99.90;;;;;;5036278;28;20238;-81
2022/12/01 01:21:18;;;;;;;84.87;37.70;;;4.70;99.90;;;;;;5037416;28;20207;-80
2022/12/01 01:23:45;;;;;;;85.57;44.63;;;4.70;99.90;;;;;;5022758;28;20220;-81
2022/12/01 01:26:14;;;;;;;90.33;42.73;;;4.70;99.90;;;;;;5018135;28;20214;-81
2022/12/01 01:28:42;;;;;;;89.30;38.30;;;4.60;99.90;;;;;;5028205;28;20608;-81
2022/12/01 01:31:11;;;;;;;91.30;37.77;;;4.70;99.90;;;;;;5037827;28;20206;-81
2022/12/01 01:33:39;;;;;;;86.27;36.67;;;4.60;99.90;;;;;;5036729;28;20207;-81
2022/12/01 01:36:07;;;;;;;87.47;38.77;;;4.60;99.90;;;;;;5032299;28;20220;-81
2022/12/01 01:38:34;;;;;;;82.40;37.73;;;4.50;99.90;;;;;;5017613;28;20236;-81
2022/12/01 01:41:01;;;;;;;81.77;37.27;;;4.50;99.90;;;;;;5030534;28;20207;-81
2022/12/01 01:43:45;;;;;;;86.77;37.20;;;4.50;99.90;;;;;;5021766;28;20224;-81
2022/12/01 01:46:14;;;;;;;81.77;35.13;;;4.50;99.90;;;;;;5017431;28;20212;-81
2022/12/01 01:48:43;;;;;;;88.53;36.03;;;4.30;99.90;;;;;;5016600;28;20230;-81
2022/12/01 01:51:13;;;;;;;79.27;35.80;;;4.30;99.90;;;;;;5017543;28;20572;-81
2022/12/01 01:53:40;;;;;;;89.07;38.77;;;4.30;99.90;;;;;;5032279;28;20200;-81
2022/12/01 01:56:08;;;;;;;92.10;39.37;;;4.30;99.90;;;;;;5022727;28;20725;-81
2022/12/01 01:58:36;;;;;;;99.83;41.03;;;4.40;99.90;;;;;;5037835;28;20298;-81
2022/12/01 02:01:05;;;;;;;100.27;41.43;;;4.30;99.90;;;;;;5033975;28;20214;-81
2022/12/01 02:03:33;;;;;;;98.93;40.67;;;4.30;99.90;;;;;;5029491;28;20200;-81
2022/12/01 02:06:00;;;;;;;95.47;41.10;;;4.30;99.90;;;;;;5034379;28;20206;-81
2022/12/01 02:08:27;;;;;;;95.03;38.60;;;4.30;99.90;;;;;;5030748;28;20212;-81
2022/12/01 02:11:17;;;;;;;93.23;37.30;;;4.30;99.90;;;;;;5021333;28;20730;-81
2022/12/01 02:13:51;;;;;;;102.70;39.77;;;4.20;99.90;;;;;;5027384;28;20207;-81
2022/12/01 02:16:28;;;;;;;102.07;48.93;;;4.10;99.90;;;;;;5037530;28;20226;-81
2022/12/01 02:19:05;;;;;;;97.90;46.50;;;4.10;99.90;;;;;;5036615;28;20227;-81
2022/12/01 02:21:44;;;;;;;105.90;41.47;;;4.20;99.90;;;;;;5036968;28;20205;-81
2022/12/01 02:24:49;;;;;;;97.30;38.63;;;4.10;99.90;;;;;;5037062;28;20675;-81
2022/12/01 02:27:28;;;;;;;100.97;47.77;;;4.00;99.90;;;;;;5034508;28;20203;-81
2022/12/01 02:30:10;;;;;;;106.90;46.60;;;4.00;99.90;;;;;;5017067;28;20224;-81
2022/12/01 02:32:50;;;;;;;118.50;49.47;;;4.00;99.90;;;;;;5013751;28;20208;-81
2022/12/01 02:35:24;;;;;;;118.17;49.10;;;4.00;99.90;;;;;;5016776;28;20204;-81
2022/12/01 02:38:03;;;;;;;115.60;42.77;;;3.90;99.90;;;;;;5014159;28;20204;-81
2022/12/01 02:40:33;;;;;;;102.03;37.23;;;4.00;99.90;;;;;;5016455;28;20204;-81
2022/12/01 02:43:06;;;;;;;106.60;37.00;;;3.90;99.90;;;;;;5030128;28;20203;-81
2022/12/01 02:45:40;;;;;;;98.37;36.27;;;3.80;99.90;;;;;;5033352;28;20207;-81
2022/12/01 02:48:14;;;;;;;103.80;38.40;;;3.80;99.90;;;;;;5015911;28;20208;-81
2022/12/01 02:50:42;;;;;;;106.93;37.83;;;3.80;99.90;;;;;;5029365;28;20204;-81
2022/12/01 02:53:11;;;;;;;101.97;38.23;;;3.70;99.90;;;;;;5031894;28;20209;-81
2022/12/01 02:55:51;;;;;;;96.27;36.43;;;3.80;99.90;;;;;;5035705;28;20223;-81
2022/12/01 02:58:18;;;;;;;113.23;40.73;;;3.70;99.90;;;;;;5028064;28;20227;-81
2022/12/01 03:01:07;;;;;;;99.43;36.17;;;3.70;99.90;;;;;;5036524;28;20611;-81
2022/12/01 03:03:58;;;;;;;99.53;33.63;;;3.60;99.90;;;;;;5014920;28;20216;-81
2022/12/01 03:06:36;;;;;;;107.63;43.00;;;3.60;99.90;;;;;;5035742;28;20643;-81
2022/12/01 03:09:11;;;;;;;100.40;37.57;;;3.60;99.90;;;;;;5036122;28;20229;-81
2022/12/01 03:11:45;;;;;;;91.37;33.13;;;3.60;99.90;;;;;;5015520;28;20203;-81
2022/12/01 03:14:22;;;;;;;98.47;40.47;;;3.60;99.90;;;;;;5029803;28;20215;-81
2022/12/01 03:16:52;;;;;;;106.70;36.90;;;3.50;99.90;;;;;;5033445;28;20229;-81
2022/12/01 03:19:31;;;;;;;103.23;36.83;;;3.50;99.90;;;;;;5034034;28;20239;-80
2022/12/01 03:22:04;;;;;;;89.80;34.23;;;3.50;99.90;;;;;;5022059;28;20200;-81
2022/12/01 03:24:32;;;;;;;101.73;41.97;;;3.60;99.90;;;;;;5026623;28;20238;-81
2022/12/01 03:27:02;;;;;;;95.10;39.70;;;3.50;99.90;;;;;;5016173;28;20251;-81
2022/12/01 03:29:33;;;;;;;93.53;34.57;;;3.50;99.90;;;;;;5015093;28;20234;-81
2022/12/01 03:32:04;;;;;;;93.60;33.57;;;3.50;99.90;;;;;;5019899;28;20222;-80
2022/12/01 03:34:37;;;;;;;98.00;36.07;;;3.50;99.90;;;;;;5025755;28;20783;-81
2022/12/01 03:37:08;;;;;;;104.33;36.60;;;3.50;99.90;;;;;;5029611;28;20246;-80
2022/12/01 03:39:38;;;;;;;99.03;35.60;;;3.60;99.90;;;;;;5034690;28;20215;-81
2022/12/01 03:42:09;;;;;;;91.33;35.57;;;3.50;99.90;;;;;;5033792;28;20202;-81
2022/12/01 03:44:42;;;;;;;80.03;32.17;;;3.50;99.90;;;;;;5035932;28;20195;-81
2022/12/01 03:47:12;;;;;;;76.97;29.83;;;3.40;99.90;;;;;;5034974;28;20204;-81
2022/12/01 03:49:41;;;;;;;81.93;31.47;;;3.40;99.90;;;;;;5034872;28;20232;-81
2022/12/01 03:52:18;;;;;;;87.80;33.27;;;3.40;99.90;;;;;;5034686;28;20206;-81
2022/12/01 03:54:52;;;;;;;85.73;29.90;;;3.40;99.90;;;;;;5035487;28;20664;-81
2022/12/01 03:57:25;;;;;;;95.03;32.83;;;3.30;99.90;;;;;;5034500;28;20234;-81
2022/12/01 03:59:53;;;;;;;82.07;33.53;;;3.30;99.90;;;;;;5034951;28;20258;-80
2022/12/01 04:02:20;;;;;;;89.23;30.10;;;3.20;99.90;;;;;;5034879;28;20226;-81
2022/12/01 04:04:48;;;;;;;75.97;28.17;;;3.30;99.90;;;;;;5034871;28;20294;-80
2022/12/01 04:07:15;;;;;;;87.53;33.77;;;3.30;99.90;;;;;;5034902;28;20210;-81
2022/12/01 04:09:42;;;;;;;95.63;34.17;;;3.30;99.90;;;;;;5034710;28;20220;-81
2022/12/01 04:12:31;;;;;;;97.13;39.40;;;3.30;99.90;;;;;;5032699;28;20211;-81
2022/12/01 04:15:00;;;;;;;93.80;30.00;;;3.20;99.90;;;;;;5030603;28;20218;-81
2022/12/01 04:17:28;;;;;;;101.27;34.43;;;3.30;99.90;;;;;;5011748;28;20700;-81
2022/12/01 04:19:56;;;;;;;101.90;34.30;;;3.30;99.90;;;;;;5014987;28;20234;-81
2022/12/01 04:22:23;;;;;;;89.53;37.83;;;3.20;99.90;;;;;;5018095;28;20214;-81
2022/12/01 04:24:52;;;;;;;89.47;31.27;;;3.20;99.90;;;;;;5033045;28;20204;-80
2022/12/01 04:27:19;;;;;;;97.70;33.90;;;3.20;99.90;;;;;;5013830;28;20689;-81
2022/12/01 04:29:47;;;;;;;89.93;30.07;;;3.20;99.90;;;;;;5017594;28;20227;-80
2022/12/01 04:32:13;;;;;;;89.63;31.80;;;3.20;99.90;;;;;;5017479;28;20204;-82
2022/12/01 04:34:40;;;;;;;98.33;38.80;;;3.20;99.90;;;;;;5011715;28;20208;-82
2022/12/01 04:37:10;;;;;;;94.50;37.77;;;3.20;99.90;;;;;;5024089;28;20219;-82
2022/12/01 04:39:37;;;;;;;97.50;38.40;;;3.20;99.90;;;;;;5034093;28;20318;-82
2022/12/01 04:42:05;;;;;;;94.57;30.53;;;3.20;99.90;;;;;;5033535;28;20208;-82
2022/12/01 04:44:32;;;;;;;89.17;32.77;;;3.30;99.90;;;;;;5035656;28;20203;-81
2022/12/01 04:46:58;;;;;;;92.77;36.33;;;3.30;99.90;;;;;;5044951;28;20200;-81
2022/12/01 04:49:25;;;;;;;95.07;36.70;;;3.20;99.90;;;;;;5049736;28;20222;-82
2022/12/01 04:51:52;;;;;;;96.83;31.73;;;3.30;99.90;;;;;;5034825;28;20215;-80
2022/12/01 04:54:21;;;;;;;91.00;28.27;;;3.30;99.90;;;;;;5054613;28;20718;-81
2022/12/01 04:56:47;;;;;;;92.60;31.60;;;3.20;99.90;;;;;;5041519;28;20269;-81
2022/12/01 04:59:14;;;;;;;82.17;29.53;;;3.20;99.90;;;;;;5043175;28;20233;-81
2022/12/01 05:01:41;;;;;;;89.60;33.20;;;3.20;99.90;;;;;;5046633;28;20213;-81
2022/12/01 05:04:10;;;;;;;90.97;32.10;;;3.20;99.90;;;;;;5049368;28;20212;-81
2022/12/01 05:06:37;;;;;;;95.17;39.40;;;3.30;99.90;;;;;;5040988;28;20195;-81
2022/12/01 05:09:04;;;;;;;88.30;36.37;;;3.30;99.90;;;;;;5037246;28;20281;-82
2022/12/01 05:11:33;;;;;;;90.10;31.50;;;3.30;99.90;;;;;;5044279;28;20200;-81
2022/12/01 05:14:00;;;;;;;97.47;37.90;;;3.20;99.90;;;;;;5047880;28;20198;-81
2022/12/01 05:16:30;;;;;;;86.13;33.67;;;3.30;99.90;;;;;;5033558;28;20607;-81
2022/12/01 05:21:40;;;;;;;84.47;31.13;;;3.20;99.90;;;;;;5037826;28;20207;-81
2022/12/01 05:24:07;;;;;;;81.13;30.00;;;3.20;99.90;;;;;;5044119;28;20199;-82
2022/12/01 05:26:36;;;;;;;71.93;26.43;;;3.30;99.90;;;;;;5045302;28;20258;-87
2022/12/01 05:29:03;;;;;;;81.40;33.97;;;3.30;99.90;;;;;;5044779;28;20220;-82
2022/12/01 05:31:30;;;;;;;78.40;33.43;;;3.30;99.90;;;;;;5044486;28;20678;-81
2022/12/01 05:33:57;;;;;;;75.37;27.87;;;3.30;99.90;;;;;;5039839;28;20582;-81
2022/12/01 05:36:24;;;;;;;74.67;27.50;;;3.30;99.90;;;;;;5043964;28;20234;-81
2022/12/01 05:38:51;;;;;;;76.07;35.03;;;3.30;99.90;;;;;;5046153;28;20245;-81
2022/12/01 05:41:18;;;;;;;72.03;27.70;;;3.20;99.90;;;;;;5049732;28;20215;-81
2022/12/01 05:43:46;;;;;;;70.33;28.37;;;3.30;99.90;;;;;;5049408;28;20210;-82
2022/12/01 05:46:13;;;;;;;75.63;28.30;;;3.30;99.90;;;;;;5039732;28;20195;-82
2022/12/01 05:48:41;;;;;;;76.20;27.57;;;3.20;99.90;;;;;;5042178;28;20602;-82
2022/12/01 05:51:09;;;;;;;69.97;27.57;;;3.30;99.90;;;;;;5043361;28;20202;-82
2022/12/01 05:53:36;;;;;;;77.13;31.87;;;3.30;99.90;;;;;;5035042;28;20208;-81
2022/12/01 05:56:03;;;;;;;71.87;30.50;;;3.20;99.90;;;;;;5048082;28;20212;-82
2022/12/01 05:58:30;;;;;;;79.67;29.13;;;3.30;99.90;;;;;;5044298;28;20215;-82
2022/12/01 06:00:58;;;;;;;80.37;29.17;;;3.30;99.90;;;;;;5044210;28;20220;-81
2022/12/01 06:03:25;;;;;;;78.23;30.83;;;3.30;99.90;;;;;;5041071;28;20200;-82
2022/12/01 06:05:52;;;;;;;77.77;34.00;;;3.30;99.90;;;;;;5048766;28;20209;-81
2022/12/01 06:08:18;;;;;;;71.60;31.03;;;3.30;99.90;;;;;;5046504;28;20699;-82
2022/12/01 06:10:47;;;;;;;79.50;33.17;;;3.30;99.90;;;;;;5038833;28;20206;-81
2022/12/01 06:13:13;;;;;;;72.43;31.10;;;3.30;99.90;;;;;;5037203;28;20222;-81
2022/12/01 06:15:40;;;;;;;75.03;28.90;;;3.20;99.90;;;;;;5037690;28;20204;-80
2022/12/01 06:18:08;;;;;;;79.63;34.13;;;3.30;99.90;;;;;;5025668;28;20216;-80
2022/12/01 06:20:35;;;;;;;77.20;35.57;;;3.30;99.90;;;;;;5036944;28;20707;-81
2022/12/01 06:23:02;;;;;;;81.10;34.17;;;3.30;99.90;;;;;;5036415;28;20229;-80
2022/12/01 06:25:29;;;;;;;70.77;27.33;;;3.30;99.90;;;;;;5026418;28;20200;-81
2022/12/01 06:27:57;;;;;;;80.43;29.53;;;3.30;99.90;;;;;;5044917;28;20252;-81
2022/12/01 06:30:24;;;;;;;83.33;31.00;;;3.30;99.90;;;;;;5050159;28;20208;-81
2022/12/01 06:32:50;;;;;;;78.47;30.03;;;3.40;99.90;;;;;;5037275;28;20203;-81
2022/12/01 06:35:19;;;;;;;88.57;28.87;;;3.30;99.90;;;;;;5038141;28;20214;-82
2022/12/01 06:37:46;;;;;;;84.23;31.47;;;3.30;99.90;;;;;;5036401;28;20223;-81
2022/12/01 06:40:13;;;;;;;83.10;28.90;;;3.30;99.90;;;;;;5046076;28;20230;-81
2022/12/01 06:42:40;;;;;;;84.13;30.53;;;3.30;99.90;;;;;;5038164;28;20259;-82
2022/12/01 06:45:07;;;;;;;88.87;36.37;;;3.30;99.90;;;;;;5040257;28;20216;-82
2022/12/01 06:47:34;;;;;;;79.27;29.77;;;3.30;99.90;;;;;;5046765;28;20574;-82
2022/12/01 06:50:01;;;;;;;79.43;34.80;;;3.30;99.90;;;;;;5047046;28;20228;-81
2022/12/01 06:52:29;;;;;;;80.63;34.20;;;3.30;99.90;;;;;;5035992;28;20211;-81
2022/12/01 06:54:56;;;;;;;73.17;28.70;;;3.30;99.90;;;;;;5038710;28;20203;-82
2022/12/01 06:57:23;;;;;;;76.27;28.33;;;3.30;99.90;;;;;;5049985;28;20224;-81
2022/12/01 06:59:49;;;;;;;79.23;29.57;;;3.30;99.90;;;;;;5039695;28;20234;-82
2022/12/01 07:02:16;;;;;;;72.83;28.00;;;3.20;99.90;;;;;;5037042;28;20282;-82
2022/12/01 07:04:43;;;;;;;63.70;25.17;;;3.20;99.90;;;;;;5043986;28;20226;-83
2022/12/01 07:07:11;;;;;;;72.40;26.77;;;3.20;99.90;;;;;;5045200;28;20205;-82
2022/12/01 07:09:39;;;;;;;70.43;27.20;;;3.20;99.90;;;;;;5049989;28;20340;-82
2022/12/01 07:12:06;;;;;;;72.57;32.73;;;3.20;99.90;;;;;;5045241;28;20631;-83
2022/12/01 07:14:34;;;;;;;67.50;25.50;;;3.20;99.90;;;;;;5041702;28;20675;-82
2022/12/01 07:17:01;;;;;;;71.20;26.00;;;3.10;99.90;;;;;;5045937;28;20231;-82
2022/12/01 07:19:28;;;;;;;65.40;25.73;;;3.10;99.90;;;;;;5041218;28;20559;-82
2022/12/01 07:21:55;;;;;;;76.67;28.67;;;3.20;99.90;;;;;;5044009;28;20210;-83
2022/12/01 07:24:21;;;;;;;66.40;25.87;;;3.10;99.90;;;;;;5035632;28;20290;-83
2022/12/01 07:26:49;;;;;;;70.13;27.07;;;3.10;99.90;;;;;;5050385;28;20214;-83
2022/12/01 07:29:17;;;;;;;68.00;25.77;;;3.10;99.90;;;;;;5037318;28;20219;-82
2022/12/01 07:31:43;;;;;;;66.53;25.93;;;3.10;99.90;;;;;;5043950;28;20298;-83
2022/12/01 07:34:12;;;;;;;64.43;26.73;;;3.20;99.90;;;;;;5041350;28;20200;-82
2022/12/01 07:36:39;;;;;;;72.63;27.00;;;3.20;99.90;;;;;;5041953;28;20208;-83
2022/12/01 07:39:06;;;;;;;72.43;27.13;;;3.10;99.90;;;;;;5040245;28;20245;-83
2022/12/01 07:41:34;;;;;;;77.20;31.60;;;3.20;99.90;;;;;;5053753;28;20277;-83
2022/12/01 07:44:02;;;;;;;73.00;26.67;;;3.10;99.90;;;;;;5045276;28;20302;-82
2022/12/01 07:46:32;;;;;;;77.37;26.70;;;3.10;99.90;;;;;;5042097;28;20200;-82
2022/12/01 07:48:59;;;;;;;74.93;28.60;;;3.20;99.90;;;;;;5046009;28;20230;-82
2022/12/01 07:51:26;;;;;;;69.70;25.90;;;3.20;99.90;;;;;;5053324;28;20215;-85
2022/12/01 07:53:54;;;;;;;62.43;25.93;;;3.20;99.90;;;;;;5039808;28;20663;-82
2022/12/01 07:56:22;;;;;;;64.73;27.13;;;3.20;99.90;;;;;;5044612;28;20207;-82
2022/12/01 07:58:52;;;;;;;68.57;25.10;;;3.20;99.90;;;;;;5048419;28;20655;-82
2022/12/01 08:01:21;;;;;;;73.30;31.53;;;3.30;99.90;;;;;;5043476;28;20231;-82
2022/12/01 08:03:51;;;;;;;66.07;28.77;;;3.20;99.90;;;;;;5045429;28;20266;-83
2022/12/01 08:06:19;;;;;;;76.60;31.53;;;3.20;99.90;;;;;;5054140;28;20196;-82
2022/12/01 08:08:46;;;;;;;76.30;26.87;;;3.10;99.90;;;;;;5049180;28;20223;-82
2022/12/01 08:11:15;;;;;;;69.97;26.77;;;3.50;99.90;;;;;;5044244;28;20214;-82
2022/12/01 08:13:43;;;;;;;77.27;27.83;;;3.20;99.90;;;;;;5052231;28;20656;-82
2022/12/01 08:16:12;;;;;;;86.10;28.83;;;3.20;99.90;;;;;;5048044;28;20687;-82
2022/12/01 08:18:41;;;;;;;81.03;27.53;;;3.30;99.90;;;;;;5047347;28;20233;-83
2022/12/01 08:21:11;;;;;;;83.60;28.27;;;3.10;99.90;;;;;;5042196;28;20211;-82
2022/12/01 08:23:37;;;;;;;85.10;33.53;;;3.10;99.90;;;;;;5040106;28;20232;-81
2022/12/01 08:26:06;;;;;;;83.60;32.83;;;3.20;99.90;;;;;;5043170;28;20289;-82
2022/12/01 08:28:36;;;;;;;79.63;28.07;;;3.20;99.90;;;;;;5071198;22;20227;-89
2022/12/01 08:31:08;;;;;;;81.47;27.00;;;3.20;99.90;;;;;;5050678;28;20207;-90
2022/12/01 08:33:35;;;;;;;80.30;28.87;;;3.20;99.90;;;;;;5051056;28;20230;-90
2022/12/01 08:36:06;;;;;;;84.87;27.20;;;3.20;99.90;;;;;;5032101;28;20240;-89
2022/12/01 08:38:43;;;;;;;92.13;31.23;;;3.20;99.90;;;;;;5026061;28;20708;-89
2022/12/01 08:41:13;;;;;;;89.23;29.53;;;3.20;99.90;;;;;;5024879;28;20787;-90
2022/12/01 08:43:58;;;;;;;91.53;31.60;;;3.20;99.90;;;;;;5022983;28;20207;-90
2022/12/01 08:46:25;;;;;;;94.30;30.40;;;3.20;99.90;;;;;;5029508;28;20230;-90
2022/12/01 08:48:56;;;;;;;86.57;30.40;;;3.20;99.90;;;;;;5027050;28;20286;-89
2022/12/01 08:51:24;;;;;;;93.93;30.20;;;3.20;99.90;;;;;;5029951;28;20235;-89
2022/12/01 08:53:55;;;;;;;103.30;36.83;;;3.10;99.90;;;;;;5027731;28;20227;-89
2022/12/01 08:56:25;;;;;;;101.80;37.23;;;3.20;99.90;;;;;;5029884;28;20239;-88
2022/12/01 08:58:54;;;;;;;98.67;31.27;;;3.60;99.90;;;;;;5027488;28;20312;-89
2022/12/01 09:01:24;;;;;;;101.77;32.17;;;3.70;99.90;;;;;;5023464;28;20207;-90
2022/12/01 09:04:04;;;;;;;95.33;29.87;;;3.80;99.90;;;;;;5028813;28;20302;-89
2022/12/01 09:06:34;;;;;;;87.90;30.13;;;3.40;99.90;;;;;;5027258;28;20235;-89
2022/12/01 09:09:02;;;;;;;85.60;26.57;;;3.40;99.90;;;;;;5028559;28;20213;-89
2022/12/01 09:11:33;;;;;;;93.03;29.27;;;3.40;99.90;;;;;;5023921;28;20825;-90
2022/12/01 09:14:00;;;;;;;90.10;28.73;;;3.20;99.90;;;;;;5030095;28;20210;-90
2022/12/01 09:16:27;;;;;;;84.10;28.97;;;3.20;99.90;;;;;;5022147;28;20219;-90
2022/12/01 09:18:55;;;;;;;88.60;28.93;;;3.20;99.90;;;;;;5028720;28;20586;-89
2022/12/01 09:21:25;;;;;;;106.30;31.73;;;3.30;99.90;;;;;;5025836;28;20208;-89
2022/12/01 09:23:54;;;;;;;78.00;29.40;;;3.30;99.90;;;;;;5026939;28;20216;-90
2022/12/01 09:26:21;;;;;;;99.17;30.87;;;3.30;99.90;;;;;;5030096;28;20235;-89
2022/12/01 09:28:52;;;;;;;98.03;31.20;;;3.40;99.90;;;;;;5029050;28;20591;-88
2022/12/01 09:31:19;;;;;;;97.37;29.97;;;3.30;99.90;;;;;;5028629;28;20213;-88
2022/12/01 09:33:46;;;;;;;94.43;30.40;;;3.30;99.90;;;;;;5029112;28;20668;-89
2022/12/01 09:36:20;;;;;;;93.40;30.70;;;3.30;99.90;;;;;;5027449;28;20219;-89
2022/12/01 09:38:47;;;;;;;112.23;32.57;;;3.30;99.90;;;;;;5032130;28;20219;-89
2022/12/01 09:41:23;;;;;;;105.50;32.57;;;3.30;99.90;;;;;;5032259;28;20677;-89
2022/12/01 09:43:55;;;;;;;100.80;30.30;;;3.30;99.90;;;;;;5030114;28;20267;-90
2022/12/01 09:46:26;;;;;;;94.33;29.63;;;3.30;99.90;;;;;;5034590;28;20242;-89
2022/12/01 09:48:57;;;;;;;100.30;29.63;;;3.30;99.90;;;;;;5031562;28;20624;-89
2022/12/01 09:51:29;;;;;;;109.33;30.17;;;3.20;99.90;;;;;;5033195;28;20258;-89
2022/12/01 09:53:59;;;;;;;97.77;31.27;;;3.40;99.90;;;;;;5031747;28;20287;-89
2022/12/01 09:56:31;;;;;;;96.40;29.67;;;3.20;99.90;;;;;;5031859;28;20708;-89
2022/12/01 09:58:59;;;;;;;105.10;32.27;;;3.30;99.90;;;;;;5022977;28;20306;-89
2022/12/01 10:01:35;;;;;;;101.33;34.33;;;3.20;99.90;;;;;;5032231;28;20210;-90
2022/12/01 10:04:10;;;;;;;105.30;34.53;;;3.20;99.90;;;;;;5029808;28;20215;-89
2022/12/01 10:06:40;;;;;;;111.47;37.37;;;3.20;99.90;;;;;;5032601;28;20216;-89
2022/12/01 10:09:20;;;;;;;103.43;32.37;;;3.20;99.90;;;;;;5027955;28;20666;-90
2022/12/01 10:11:55;;;;;;;109.83;37.20;;;3.30;99.90;;;;;;5023240;28;20204;-90
2022/12/01 10:14:21;;;;;;;104.27;30.47;;;3.30;99.90;;;;;;5033400;28;21286;-90
2022/12/01 10:16:58;;;;;;;105.03;30.60;;;3.30;99.90;;;;;;5031888;28;20302;-89
2022/12/01 10:19:32;;;;;;;108.70;38.87;;;3.30;99.90;;;;;;5033687;28;20219;-89
2022/12/01 10:22:12;;;;;;;129.23;38.27;;;3.50;99.90;;;;;;5030977;28;20203;-89
2022/12/01 10:24:53;;;;;;;106.47;36.37;;;3.40;99.90;;;;;;5030671;28;20274;-90
2022/12/01 10:27:39;;;;;;;101.77;30.10;;;3.50;99.90;;;;;;5030867;28;20678;-91
2022/12/01 10:30:14;;;;;;;90.10;27.03;;;3.50;99.90;;;;;;5033375;28;20208;-91
2022/12/01 10:32:55;;;;;;;106.60;31.67;;;3.40;99.90;;;;;;5024391;28;20264;-91
2022/12/01 10:35:28;;;;;;;104.57;29.83;;;3.50;99.90;;;;;;5037792;28;20285;-92
2022/12/01 10:37:59;;;;;;;99.60;30.77;;;3.40;99.90;;;;;;5034723;28;20220;-91
2022/12/01 10:40:33;;;;;;;100.20;27.77;;;3.40;99.90;;;;;;5034521;28;20210;-91
2022/12/01 10:43:02;;;;;;;104.13;31.17;;;3.50;99.90;;;;;;5032014;28;20214;-92
2022/12/01 10:45:34;;;;;;;96.27;28.67;;;3.50;99.90;;;;;;5028727;28;20684;-91
2022/12/01 10:48:10;;;;;;;102.00;29.30;;;3.60;99.90;;;;;;5027327;28;20196;-91
2022/12/01 10:50:37;;;;;;;102.67;28.73;;;3.50;99.90;;;;;;5032617;28;20211;-91
2022/12/01 10:53:04;;;;;;;92.50;29.90;;;3.40;99.90;;;;;;5034840;28;20234;-94
2022/12/01 10:55:37;;;;;;;103.53;33.13;;;3.50;99.90;;;;;;5033691;28;20219;-91
2022/12/01 10:58:13;;;;;;;93.00;28.33;;;3.50;99.90;;;;;;5030335;28;20750;-90
2022/12/01 11:00:51;;;;;;;95.43;28.13;;;3.50;99.90;;;;;;5032365;28;20282;-91
2022/12/01 11:03:21;;;;;;;104.30;30.23;;;3.50;99.90;;;;;;5028518;28;20204;-92
2022/12/01 11:05:52;;;;;;;104.37;30.73;;;3.60;99.90;;;;;;5033151;28;20247;-91
2022/12/01 11:08:32;;;;;;;108.13;36.73;;;3.60;99.90;;;;;;5030593;28;20199;-91
2022/12/01 11:10:59;;;;;;;95.23;35.60;;;3.50;99.90;;;;;;5027159;28;20627;-91
2022/12/01 11:13:29;;;;;;;96.70;36.00;;;3.60;99.90;;;;;;5032213;28;20204;-90
2022/12/01 11:15:58;;;;;;;88.37;28.60;;;3.60;99.90;;;;;;5030205;28;20604;-91
2022/12/01 11:18:31;;;;;;;96.43;29.10;;;3.70;99.90;;;;;;5032154;28;20227;-91
2022/12/01 11:21:12;;;;;;;94.10;35.30;;;3.60;99.90;;;;;;5033467;28;20639;-90
2022/12/01 11:23:45;;;;;;;84.83;27.13;;;3.60;99.90;;;;;;5025726;28;20235;-92
2022/12/01 11:26:19;;;;;;;90.27;28.63;;;3.60;99.90;;;;;;5031189;28;20688;-91
2022/12/01 11:28:58;;;;;;;87.10;28.57;;;3.70;99.90;;;;;;5028180;28;20633;-92
2022/12/01 11:31:37;;;;;;;92.33;34.30;;;3.70;99.90;;;;;;5029891;28;20207;-92
2022/12/01 11:34:05;;;;;;;82.37;27.90;;;3.70;99.90;;;;;;5036484;28;20293;-92
2022/12/01 11:36:50;;;;;;;77.77;25.07;;;3.70;99.90;;;;;;5035416;28;20219;-92
2022/12/01 11:39:35;;;;;;;72.67;24.17;;;3.70;99.90;;;;;;5038472;28;20765;-92
2022/12/01 11:42:16;;;;;;;85.17;27.63;;;3.80;99.90;;;;;;5035308;28;20257;-92
2022/12/01 11:44:51;;;;;;;76.13;25.03;;;3.80;99.90;;;;;;5033762;28;20211;-92
2022/12/01 11:47:23;;;;;;;73.80;23.80;;;3.70;99.90;;;;;;5032512;28;20262;-91
2022/12/01 11:49:53;;;;;;;84.70;32.20;;;3.60;99.90;;;;;;5032589;28;20207;-91
2022/12/01 11:52:30;;;;;;;79.60;26.20;;;3.80;99.90;;;;;;5028977;28;20207;-91
2022/12/01 11:55:22;;;;;;;78.30;28.40;;;3.60;99.90;;;;;;5031764;28;20583;-91
2022/12/01 11:57:52;;;;;;;75.40;26.40;;;3.80;99.90;;;;;;5026009;28;20579;-91
2022/12/01 12:00:24;;;;;;;84.53;26.80;;;3.70;99.90;;;;;;5027214;28;20261;-91
2022/12/01 12:03:12;;;;;;;80.27;25.67;;;3.80;99.90;;;;;;5030389;28;20204;-92
2022/12/01 12:05:50;;;;;;;73.70;28.00;;;3.70;99.90;;;;;;5029245;28;20228;-91
2022/12/01 12:08:32;;;;;;;77.47;25.87;;;3.80;99.90;;;;;;5028395;28;20282;-91
2022/12/01 12:11:10;;;;;;;75.80;27.63;;;3.80;99.90;;;;;;5024995;28;20204;-92
2022/12/01 12:14:05;;;;;;;78.33;26.17;;;3.70;99.90;;;;;;5029610;28;20212;-91
2022/12/01 12:16:46;;;;;;;82.07;28.90;;;3.70;99.90;;;;;;5026354;28;20226;-91
2022/12/01 12:19:34;;;;;;;65.50;24.83;;;3.70;99.90;;;;;;5033853;28;20310;-90
2022/12/01 12:22:12;;;;;;;75.97;27.90;;;3.70;99.90;;;;;;5034052;28;20211;-90
2022/12/01 12:25:01;;;;;;;68.50;24.93;;;3.70;99.90;;;;;;5044858;28;20212;-91
2022/12/01 12:27:47;;;;;;;67.93;24.77;;;3.80;99.90;;;;;;5041990;28;20226;-92
2022/12/01 12:30:21;;;;;;;74.30;30.07;;;3.70;99.90;;;;;;5049833;28;20218;-91
2022/12/01 12:33:22;;;;;;;66.60;24.37;;;3.80;99.90;;;;;;5044557;28;20215;-91
2022/12/01 12:35:57;;;;;;;72.17;24.40;;;3.80;99.90;;;;;;5043683;28;20226;-93
2022/12/01 12:38:37;;;;;;;77.97;25.03;;;3.80;99.90;;;;;;5032985;28;20852;-91
2022/12/01 12:41:18;;;;;;;71.43;26.63;;;3.70;99.90;;;;;;5028848;28;20649;-91
2022/12/01 12:43:59;;;;;;;69.03;24.40;;;3.80;99.90;;;;;;5029355;28;20208;-90
2022/12/01 12:46:35;;;;;;;63.53;24.33;;;3.80;99.90;;;;;;5032312;28;20704;-92
2022/12/01 12:49:17;;;;;;;68.43;24.27;;;3.80;99.90;;;;;;5022749;28;20199;-91
2022/12/01 12:51:51;;;;;;;78.00;27.10;;;3.80;99.90;;;;;;5022190;28;20200;-91
2022/12/01 12:54:23;;;;;;;68.67;24.90;;;3.80;99.90;;;;;;5028547;28;20203;-91
2022/12/01 12:57:01;;;;;;;72.33;24.47;;;3.70;99.90;;;;;;5031899;28;20231;-91
2022/12/01 12:59:42;;;;;;;69.83;25.03;;;3.80;99.90;;;;;;5031465;28;20249;-91
2022/12/01 13:02:15;;;;;;;70.47;24.67;;;3.80;99.90;;;;;;5031551;28;20294;-92